sensor_id;sensor_type;location;lat;lon;timestamp;temperature;humidity
48019;DHT22;33786;48.690;9.562;2022-12-24T00:02:22;10.20;99.90
48019;DHT22;33786;48.690;9.562;2022-12-24T00:04:50;10.20;99.90
48019;DHT22;33786;48.690;9.562;2022-12-24T00:07:24;10.20;99.90
48019;DHT22;33786;48.690;9.562;2022-12-24T00:09:50;10.20;99.90
48019;DHT22;33786;48.690;9.562;2022-12-24T00:12:17;10.30;99.90
48019;DHT22;33786;48.690;9.562;2022-12-24T00:14:44;10.20;99.90
48019;DHT22;33786;48.690;9.562;2022-12-24T00:17:11;10.20;99.90
48019;DHT22;33786;48.690;9.562;2022-12-24T00:19:38;10.30;99.90
48019;DHT22;33786;48.690;9.562;2022-12-24T00:22:05;10.20;99.90
48019;DHT22;33786;48.690;9.562;2022-12-24T00:24:31;10.20;99.90
48019;DHT22;33786;48.690;9.562;2022-12-24T00:26:58;10.20;99.90
48019;DHT22;33786;48.690;9.562;2022-12-24T00:29:25;10.20;99.90
48019;DHT22;33786;48.690;9.562;2022-12-24T00:31:52;10.20;99.90
48019;DHT22;33786;48.690;9.562;2022-12-24T00:34:18;10.20;99.90
48019;DHT22;33786;48.690;9.562;2022-12-24T00:36:45;10.20;99.90
48019;DHT22;33786;48.690;9.562;2022-12-24T00:39:12;10.10;99.90
48019;DHT22;33786;48.690;9.562;2022-12-24T00:41:39;10.20;99.90
48019;DHT22;33786;48.690;9.562;2022-12-24T00:44:06;10.20;99.90
48019;DHT22;33786;48.690;9.562;2022-12-24T00:46:36;10.20;99.90
48019;DHT22;33786;48.690;9.562;2022-12-24T00:49:04;10.20;99.90
48019;DHT22;33786;48.690;9.562;2022-12-24T00:51:31;10.20;99.90
48019;DHT22;33786;48.690;9.562;2022-12-24T00:53:58;10.20;99.90
48019;DHT22;33786;48.690;9.562;2022-12-24T00:56:25;10.20;99.90
48019;DHT22;33786;48.690;9.562;2022-12-24T00:58:52;10.20;99.90
48019;DHT22;33786;48.690;9.562;2022-12-24T01:01:19;10.20;99.90
48019;DHT22;33786;48.690;9.562;2022-12-24T01:03:46;10.20;99.90
48019;DHT22;33786;48.690;9.562;2022-12-24T01:06:15;10.20;99.90
48019;DHT22;33786;48.690;9.562;2022-12-24T01:08:42;10.20;99.90
48019;DHT22;33786;48.690;9.562;2022-12-24T01:11:09;10.20;99.90
48019;DHT22;33786;48.690;9.562;2022-12-24T01:13:36;10.20;99.90
48019;DHT22;33786;48.690;9.562;2022-12-24T01:16:11;10.20;99.90
48019;DHT22;33786;48.690;9.562;2022-12-24T01:18:38;10.20;99.90
48019;DHT22;33786;48.690;9.562;2022-12-24T01:21:05;10.20;99.90
48019;DHT22;33786;48.690;9.562;2022-12-24T01:23:32;10.20;99.90
48019;DHT22;33786;48.690;9.562;2022-12-24T01:26:00;10.20;99.90
48019;DHT22;33786;48.690;9.562;2022-12-24T01:28:27;10.20;99.90
48019;DHT22;33786;48.690;9.562;2022-12-24T01:30:54;10.30;99.90
48019;DHT22;33786;48.690;9.562;2022-12-24T01:33:21;10.40;99.90
48019;DHT22;33786;48.690;9.562;2022-12-24T01:35:47;10.40;99.90
48019;DHT22;33786;48.690;9.562;2022-12-24T01:38:14;10.50;99.90
48019;DHT22;33786;48.690;9.562;2022-12-24T01:40:41;10.50;99.90
48019;DHT22;33786;48.690;9.562;2022-12-24T01:43:28;10.50;99.90
48019;DHT22;33786;48.690;9.562;2022-12-24T01:51:36;10.50;99.90
48019;DHT22;33786;48.690;9.562;2022-12-24T01:54:06;10.50;99.90
48019;DHT22;33786;48.690;9.562;2022-12-24T01:56:34;10.60;99.90
48019;DHT22;33786;48.690;9.562;2022-12-24T01:59:06;10.70;99.90
48019;DHT22;33786;48.690;9.562;2022-12-24T02:01:33;10.70;99.90
48019;DHT22;33786;48.690;9.562;2022-12-24T02:04:06;10.70;99.90
48019;DHT22;33786;48.690;9.562;2022-12-24T02:06:34;10.70;99.90
48019;DHT22;33786;48.690;9.562;2022-12-24T02:09:01;10.80;99.90
48019;DHT22;33786;48.690;9.562;2022-12-24T02:11:28;10.80;99.90
48019;DHT22;33786;48.690;9.562;2022-12-24T02:13:56;10.80;99.90
48019;DHT22;33786;48.690;9.562;2022-12-24T02:29:51;10.80;99.90
48019;DHT22;33786;48.690;9.562;2022-12-24T02:32:23;10.70;99.90
48019;DHT22;33786;48.690;9.562;2022-12-24T02:35:07;10.50;99.90
48019;DHT22;33786;48.690;9.562;2022-12-24T02:37:36;10.40;99.90
48019;DHT22;33786;48.690;9.562;2022-12-24T02:40:11;10.50;99.90
48019;DHT22;33786;48.690;9.562;2022-12-24T02:42:43;10.40;99.90
48019;DHT22;33786;48.690;9.562;2022-12-24T02:45:13;10.30;99.90
48019;DHT22;33786;48.690;9.562;2022-12-24T02:47:40;10.30;99.90
48019;DHT22;33786;48.690;9.562;2022-12-24T02:50:08;10.30;99.90
48019;DHT22;33786;48.690;9.562;2022-12-24T02:52:37;10.30;99.90
48019;DHT22;33786;48.690;9.562;2022-12-24T02:55:08;10.30;99.90
48019;DHT22;33786;48.690;9.562;2022-12-24T02:57:42;10.20;99.90
48019;DHT22;33786;48.690;9.562;2022-12-24T03:00:11;10.10;99.90
48019;DHT22;33786;48.690;9.562;2022-12-24T03:07:43;10.00;99.90
48019;DHT22;33786;48.690;9.562;2022-12-24T03:12:41;10.00;99.90
48019;DHT22;33786;48.690;9.562;2022-12-24T03:15:10;10.00;99.90
48019;DHT22;33786;48.690;9.562;2022-12-24T03:17:38;10.00;99.90
48019;DHT22;33786;48.690;9.562;2022-12-24T03:20:06;10.00;99.90
48019;DHT22;33786;48.690;9.562;2022-12-24T03:22:34;10.00;99.90
48019;DHT22;33786;48.690;9.562;2022-12-24T03:25:00;10.00;99.90
48019;DHT22;33786;48.690;9.562;2022-12-24T03:27:28;10.00;99.90
48019;DHT22;33786;48.690;9.562;2022-12-24T03:29:55;10.00;99.90
48019;DHT22;33786;48.690;9.562;2022-12-24T03:32:29;9.90;99.90
48019;DHT22;33786;48.690;9.562;2022-12-24T03:34:56;9.90;99.90
48019;DHT22;33786;48.690;9.562;2022-12-24T03:37:23;9.90;99.90
48019;DHT22;33786;48.690;9.562;2022-12-24T03:39:50;9.90;99.90
48019;DHT22;33786;48.690;9.562;2022-12-24T03:42:17;9.80;99.90
48019;DHT22;33786;48.690;9.562;2022-12-24T03:44:44;9.80;99.90
48019;DHT22;33786;48.690;9.562;2022-12-24T03:47:11;9.80;99.90
48019;DHT22;33786;48.690;9.562;2022-12-24T03:49:38;9.70;99.90
48019;DHT22;33786;48.690;9.562;2022-12-24T03:52:05;9.70;99.90
48019;DHT22;33786;48.690;9.562;2022-12-24T03:54:32;9.70;99.90
48019;DHT22;33786;48.690;9.562;2022-12-24T03:56:58;9.60;99.90
48019;DHT22;33786;48.690;9.562;2022-12-24T03:59:25;9.60;99.90
48019;DHT22;33786;48.690;9.562;2022-12-24T04:01:53;9.60;99.90
48019;DHT22;33786;48.690;9.562;2022-12-24T04:04:20;9.60;99.90
48019;DHT22;33786;48.690;9.562;2022-12-24T04:06:47;9.60;99.90
48019;DHT22;33786;48.690;9.562;2022-12-24T04:09:14;9.50;99.90
48019;DHT22;33786;48.690;9.562;2022-12-24T04:11:41;9.50;99.90
48019;DHT22;33786;48.690;9.562;2022-12-24T04:14:07;9.50;99.90
48019;DHT22;33786;48.690;9.562;2022-12-24T04:16:34;9.50;99.90
48019;DHT22;33786;48.690;9.562;2022-12-24T04:19:01;9.60;99.90
48019;DHT22;33786;48.690;9.562;2022-12-24T04:21:28;9.50;99.90
48019;DHT22;33786;48.690;9.562;2022-12-24T04:23:54;9.50;99.90
48019;DHT22;33786;48.690;9.562;2022-12-24T04:26:21;9.60;99.90
48019;DHT22;33786;48.690;9.562;2022-12-24T04:28:48;9.50;99.90
48019;DHT22;33786;48.690;9.562;2022-12-24T04:31:15;9.50;99.90
48019;DHT22;33786;48.690;9.562;2022-12-24T04:33:43;9.60;99.90
48019;DHT22;33786;48.690;9.562;2022-12-24T04:36:13;9.70;99.90
48019;DHT22;33786;48.690;9.562;2022-12-24T04:38:40;9.70;99.90
48019;DHT22;33786;48.690;9.562;2022-12-24T04:41:09;9.80;99.90
48019;DHT22;33786;48.690;9.562;2022-12-24T04:43:36;9.70;99.90
48019;DHT22;33786;48.690;9.562;2022-12-24T04:46:04;9.70;99.90
48019;DHT22;33786;48.690;9.562;2022-12-24T04:48:31;9.80;99.90
48019;DHT22;33786;48.690;9.562;2022-12-24T04:50:59;9.70;99.90
48019;DHT22;33786;48.690;9.562;2022-12-24T04:53:26;9.70;99.90
48019;DHT22;33786;48.690;9.562;2022-12-24T04:55:52;9.60;99.90
48019;DHT22;33786;48.690;9.562;2022-12-24T04:58:19;9.60;99.90
48019;DHT22;33786;48.690;9.562;2022-12-24T05:00:46;9.50;99.90
48019;DHT22;33786;48.690;9.562;2022-12-24T05:03:13;9.40;99.90
48019;DHT22;33786;48.690;9.562;2022-12-24T05:05:40;9.40;99.90
48019;DHT22;33786;48.690;9.562;2022-12-24T05:08:07;9.40;99.90
48019;DHT22;33786;48.690;9.562;2022-12-24T05:10:33;9.30;99.90
48019;DHT22;33786;48.690;9.562;2022-12-24T05:13:00;9.30;99.90
48019;DHT22;33786;48.690;9.562;2022-12-24T05:15:27;9.30;99.90
48019;DHT22;33786;48.690;9.562;2022-12-24T05:17:53;9.30;99.90
48019;DHT22;33786;48.690;9.562;2022-12-24T05:20:20;9.20;99.90
48019;DHT22;33786;48.690;9.562;2022-12-24T05:22:47;9.20;99.90
48019;DHT22;33786;48.690;9.562;2022-12-24T05:25:35;9.10;99.90
48019;DHT22;33786;48.690;9.562;2022-12-24T05:28:20;9.20;99.90
48019;DHT22;33786;48.690;9.562;2022-12-24T05:30:47;9.10;99.90
48019;DHT22;33786;48.690;9.562;2022-12-24T05:33:14;9.10;99.90
48019;DHT22;33786;48.690;9.562;2022-12-24T05:35:41;9.20;99.90
48019;DHT22;33786;48.690;9.562;2022-12-24T05:38:07;9.20;99.90
48019;DHT22;33786;48.690;9.562;2022-12-24T05:40:34;9.20;99.90
48019;DHT22;33786;48.690;9.562;2022-12-24T05:43:01;9.20;99.90
48019;DHT22;33786;48.690;9.562;2022-12-24T05:45:27;9.20;99.90
48019;DHT22;33786;48.690;9.562;2022-12-24T05:47:54;9.20;99.90
48019;DHT22;33786;48.690;9.562;2022-12-24T05:50:21;9.10;99.90
48019;DHT22;33786;48.690;9.562;2022-12-24T05:52:48;9.10;99.90
48019;DHT22;33786;48.690;9.562;2022-12-24T05:55:14;9.10;99.90
48019;DHT22;33786;48.690;9.562;2022-12-24T05:57:41;9.10;99.90
48019;DHT22;33786;48.690;9.562;2022-12-24T06:00:08;9.10;99.90
48019;DHT22;33786;48.690;9.562;2022-12-24T06:02:36;9.10;99.90
48019;DHT22;33786;48.690;9.562;2022-12-24T06:05:02;9.20;99.90
48019;DHT22;33786;48.690;9.562;2022-12-24T06:07:29;9.20;99.90
48019;DHT22;33786;48.690;9.562;2022-12-24T06:09:56;9.20;99.90
48019;DHT22;33786;48.690;9.562;2022-12-24T06:12:23;9.20;99.90
48019;DHT22;33786;48.690;9.562;2022-12-24T06:14:49;9.10;99.90
48019;DHT22;33786;48.690;9.562;2022-12-24T06:17:19;9.20;99.90
48019;DHT22;33786;48.690;9.562;2022-12-24T06:19:47;9.10;99.90
48019;DHT22;33786;48.690;9.562;2022-12-24T06:22:14;9.10;99.90
48019;DHT22;33786;48.690;9.562;2022-12-24T06:24:40;9.10;99.90
48019;DHT22;33786;48.690;9.562;2022-12-24T06:27:07;9.10;99.90
48019;DHT22;33786;48.690;9.562;2022-12-24T06:29:34;9.10;99.90
48019;DHT22;33786;48.690;9.562;2022-12-24T06:32:00;9.20;99.90
48019;DHT22;33786;48.690;9.562;2022-12-24T06:34:27;9.20;99.90
48019;DHT22;33786;48.690;9.562;2022-12-24T06:36:54;9.30;99.90
48019;DHT22;33786;48.690;9.562;2022-12-24T06:39:20;9.40;99.90
48019;DHT22;33786;48.690;9.562;2022-12-24T06:41:47;9.40;99.90
48019;DHT22;33786;48.690;9.562;2022-12-24T06:44:14;9.40;99.90
48019;DHT22;33786;48.690;9.562;2022-12-24T06:46:41;9.40;99.90
48019;DHT22;33786;48.690;9.562;2022-12-24T06:49:08;9.40;99.90
48019;DHT22;33786;48.690;9.562;2022-12-24T06:51:34;9.50;99.90
48019;DHT22;33786;48.690;9.562;2022-12-24T06:54:01;9.40;99.90
48019;DHT22;33786;48.690;9.562;2022-12-24T06:56:28;9.50;99.90
48019;DHT22;33786;48.690;9.562;2022-12-24T06:58:55;9.50;99.90
48019;DHT22;33786;48.690;9.562;2022-12-24T07:01:30;9.50;99.90
48019;DHT22;33786;48.690;9.562;2022-12-24T07:03:57;9.50;99.90
48019;DHT22;33786;48.690;9.562;2022-12-24T07:06:24;9.40;99.90
48019;DHT22;33786;48.690;9.562;2022-12-24T07:08:52;9.40;99.90
48019;DHT22;33786;48.690;9.562;2022-12-24T07:11:19;9.30;99.90
48019;DHT22;33786;48.690;9.562;2022-12-24T07:13:46;9.30;99.90
48019;DHT22;33786;48.690;9.562;2022-12-24T07:16:13;9.30;99.90
48019;DHT22;33786;48.690;9.562;2022-12-24T07:18:40;9.40;99.90
48019;DHT22;33786;48.690;9.562;2022-12-24T07:21:06;9.40;99.90
48019;DHT22;33786;48.690;9.562;2022-12-24T07:23:33;9.50;99.90
48019;DHT22;33786;48.690;9.562;2022-12-24T07:26:00;9.50;99.90
48019;DHT22;33786;48.690;9.562;2022-12-24T07:28:28;9.50;99.90
48019;DHT22;33786;48.690;9.562;2022-12-24T07:30:55;9.50;99.90
48019;DHT22;33786;48.690;9.562;2022-12-24T07:33:23;9.60;99.90
48019;DHT22;33786;48.690;9.562;2022-12-24T07:35:58;9.60;99.90
48019;DHT22;33786;48.690;9.562;2022-12-24T07:38:25;9.60;99.90
48019;DHT22;33786;48.690;9.562;2022-12-24T07:40:52;9.70;99.90
48019;DHT22;33786;48.690;9.562;2022-12-24T07:43:18;9.70;99.90
48019;DHT22;33786;48.690;9.562;2022-12-24T07:45:45;9.70;99.90
48019;DHT22;33786;48.690;9.562;2022-12-24T07:48:12;9.70;99.90
48019;DHT22;33786;48.690;9.562;2022-12-24T07:50:39;9.80;99.90
48019;DHT22;33786;48.690;9.562;2022-12-24T07:53:06;9.80;99.90
48019;DHT22;33786;48.690;9.562;2022-12-24T07:55:32;9.80;99.90
48019;DHT22;33786;48.690;9.562;2022-12-24T07:57:59;9.90;99.90
48019;DHT22;33786;48.690;9.562;2022-12-24T08:00:26;10.00;99.90
48019;DHT22;33786;48.690;9.562;2022-12-24T08:02:53;10.00;99.90
48019;DHT22;33786;48.690;9.562;2022-12-24T08:05:20;10.00;99.90
48019;DHT22;33786;48.690;9.562;2022-12-24T08:07:47;10.10;99.90
48019;DHT22;33786;48.690;9.562;2022-12-24T08:10:14;10.00;99.90
48019;DHT22;33786;48.690;9.562;2022-12-24T08:12:41;10.10;99.90
48019;DHT22;33786;48.690;9.562;2022-12-24T08:15:08;10.20;99.90
48019;DHT22;33786;48.690;9.562;2022-12-24T08:17:34;10.30;99.90
48019;DHT22;33786;48.690;9.562;2022-12-24T08:20:01;10.30;99.90
48019;DHT22;33786;48.690;9.562;2022-12-24T08:22:28;10.30;99.90
48019;DHT22;33786;48.690;9.562;2022-12-24T08:24:55;10.30;99.90
48019;DHT22;33786;48.690;9.562;2022-12-24T08:27:22;10.30;99.90
48019;DHT22;33786;48.690;9.562;2022-12-24T08:29:49;10.40;99.90
48019;DHT22;33786;48.690;9.562;2022-12-24T08:32:15;10.50;99.90
48019;DHT22;33786;48.690;9.562;2022-12-24T08:34:42;10.50;99.90
48019;DHT22;33786;48.690;9.562;2022-12-24T08:37:09;10.60;99.90
48019;DHT22;33786;48.690;9.562;2022-12-24T08:39:35;10.60;99.90
48019;DHT22;33786;48.690;9.562;2022-12-24T08:42:02;10.70;99.90
48019;DHT22;33786;48.690;9.562;2022-12-24T08:44:29;10.90;99.90
48019;DHT22;33786;48.690;9.562;2022-12-24T08:46:56;11.00;99.90
48019;DHT22;33786;48.690;9.562;2022-12-24T08:49:22;11.10;99.90
48019;DHT22;33786;48.690;9.562;2022-12-24T08:51:49;11.20;99.90
48019;DHT22;33786;48.690;9.562;2022-12-24T08:54:16;11.10;99.90
48019;DHT22;33786;48.690;9.562;2022-12-24T08:56:43;11.10;99.90
48019;DHT22;33786;48.690;9.562;2022-12-24T08:59:10;11.20;99.90
48019;DHT22;33786;48.690;9.562;2022-12-24T09:01:37;11.10;99.90
48019;DHT22;33786;48.690;9.562;2022-12-24T09:04:04;11.20;99.90
48019;DHT22;33786;48.690;9.562;2022-12-24T09:06:31;11.20;99.90
48019;DHT22;33786;48.690;9.562;2022-12-24T09:08:58;11.10;99.90
48019;DHT22;33786;48.690;9.562;2022-12-24T09:11:25;11.10;99.90
48019;DHT22;33786;48.690;9.562;2022-12-24T09:13:52;11.00;99.90
48019;DHT22;33786;48.690;9.562;2022-12-24T09:16:19;10.90;99.90
48019;DHT22;33786;48.690;9.562;2022-12-24T09:18:46;11.00;99.90
48019;DHT22;33786;48.690;9.562;2022-12-24T09:21:13;11.10;99.90
48019;DHT22;33786;48.690;9.562;2022-12-24T09:23:41;11.10;99.90
48019;DHT22;33786;48.690;9.562;2022-12-24T09:26:12;11.10;99.90
48019;DHT22;33786;48.690;9.562;2022-12-24T09:28:39;11.30;99.90
48019;DHT22;33786;48.690;9.562;2022-12-24T09:31:06;11.50;99.90
48019;DHT22;33786;48.690;9.562;2022-12-24T09:33:34;11.70;99.90
48019;DHT22;33786;48.690;9.562;2022-12-24T09:36:01;11.80;99.90
48019;DHT22;33786;48.690;9.562;2022-12-24T09:38:28;11.70;99.90
48019;DHT22;33786;48.690;9.562;2022-12-24T09:40:56;11.70;99.90
48019;DHT22;33786;48.690;9.562;2022-12-24T09:43:32;11.80;99.90
48019;DHT22;33786;48.690;9.562;2022-12-24T09:48:28;12.20;99.90
48019;DHT22;33786;48.690;9.562;2022-12-24T09:50:57;12.10;99.90
48019;DHT22;33786;48.690;9.562;2022-12-24T09:55:57;12.20;99.90
48019;DHT22;33786;48.690;9.562;2022-12-24T09:58:33;12.50;99.90
48019;DHT22;33786;48.690;9.562;2022-12-24T10:01:01;12.50;99.90
48019;DHT22;33786;48.690;9.562;2022-12-24T10:03:27;12.70;99.90
48019;DHT22;33786;48.690;9.562;2022-12-24T10:06:00;12.70;99.90
48019;DHT22;33786;48.690;9.562;2022-12-24T10:10:59;14.80;99.90
48019;DHT22;33786;48.690;9.562;2022-12-24T10:16:16;14.50;99.90
48019;DHT22;33786;48.690;9.562;2022-12-24T10:18:51;14.10;99.90
48019;DHT22;33786;48.690;9.562;2022-12-24T10:23:51;13.30;99.90
48019;DHT22;33786;48.690;9.562;2022-12-24T10:31:25;15.40;99.70
48019;DHT22;33786;48.690;9.562;2022-12-24T10:33:56;17.30;96.50
48019;DHT22;33786;48.690;9.562;2022-12-24T10:36:28;18.70;94.00
48019;DHT22;33786;48.690;9.562;2022-12-24T10:38:56;19.80;92.50
48019;DHT22;33786;48.690;9.562;2022-12-24T10:41:23;20.40;90.60
48019;DHT22;33786;48.690;9.562;2022-12-24T10:43:51;20.90;88.30
48019;DHT22;33786;48.690;9.562;2022-12-24T10:46:32;20.50;88.10
48019;DHT22;33786;48.690;9.562;2022-12-24T10:49:01;20.20;88.30
48019;DHT22;33786;48.690;9.562;2022-12-24T10:54:15;18.30;91.00
48019;DHT22;33786;48.690;9.562;2022-12-24T10:57:01;18.50;90.30
48019;DHT22;33786;48.690;9.562;2022-12-24T10:59:29;18.10;90.80
48019;DHT22;33786;48.690;9.562;2022-12-24T11:01:57;18.00;91.10
48019;DHT22;33786;48.690;9.562;2022-12-24T11:04:25;18.60;90.60
48019;DHT22;33786;48.690;9.562;2022-12-24T11:09:23;18.40;90.10
48019;DHT22;33786;48.690;9.562;2022-12-24T11:11:50;17.70;91.00
48019;DHT22;33786;48.690;9.562;2022-12-24T11:14:17;17.20;92.20
48019;DHT22;33786;48.690;9.562;2022-12-24T11:16:49;16.50;92.60
48019;DHT22;33786;48.690;9.562;2022-12-24T11:19:18;16.00;93.20
48019;DHT22;33786;48.690;9.562;2022-12-24T11:21:45;15.40;94.30
48019;DHT22;33786;48.690;9.562;2022-12-24T11:26:39;14.30;96.30
48019;DHT22;33786;48.690;9.562;2022-12-24T11:31:45;13.50;97.70
48019;DHT22;33786;48.690;9.562;2022-12-24T11:34:16;13.30;98.20
48019;DHT22;33786;48.690;9.562;2022-12-24T11:36:43;13.10;98.30
48019;DHT22;33786;48.690;9.562;2022-12-24T11:39:16;13.10;98.50
48019;DHT22;33786;48.690;9.562;2022-12-24T11:41:44;13.00;98.80
48019;DHT22;33786;48.690;9.562;2022-12-24T11:44:11;12.90;99.40
48019;DHT22;33786;48.690;9.562;2022-12-24T11:46:39;12.80;99.40
48019;DHT22;33786;48.690;9.562;2022-12-24T11:51:37;12.90;99.90
48019;DHT22;33786;48.690;9.562;2022-12-24T11:56:35;13.10;99.70
48019;DHT22;33786;48.690;9.562;2022-12-24T11:59:06;12.90;99.80
48019;DHT22;33786;48.690;9.562;2022-12-24T12:04:01;12.80;99.90
48019;DHT22;33786;48.690;9.562;2022-12-24T12:08:58;13.20;99.90
48019;DHT22;33786;48.690;9.562;2022-12-24T12:11:26;13.60;99.80
48019;DHT22;33786;48.690;9.562;2022-12-24T12:13:54;14.00;99.10
48019;DHT22;33786;48.690;9.562;2022-12-24T12:18:53;15.10;97.50
48019;DHT22;33786;48.690;9.562;2022-12-24T12:21:27;14.80;97.70
48019;DHT22;33786;48.690;9.562;2022-12-24T12:24:02;14.80;98.00
48019;DHT22;33786;48.690;9.562;2022-12-24T12:26:30;14.70;97.90
48019;DHT22;33786;48.690;9.562;2022-12-24T12:29:00;14.50;97.90
48019;DHT22;33786;48.690;9.562;2022-12-24T12:31:37;14.60;98.40
48019;DHT22;33786;48.690;9.562;2022-12-24T12:34:08;14.20;98.10
48019;DHT22;33786;48.690;9.562;2022-12-24T12:39:08;14.00;99.20
48019;DHT22;33786;48.690;9.562;2022-12-24T12:51:57;13.40;99.90
48019;DHT22;33786;48.690;9.562;2022-12-24T12:57:00;13.30;99.90
48019;DHT22;33786;48.690;9.562;2022-12-24T12:59:34;13.20;99.90
48019;DHT22;33786;48.690;9.562;2022-12-24T13:18:22;12.50;99.90
48019;DHT22;33786;48.690;9.562;2022-12-24T13:20:55;12.40;99.90
48019;DHT22;33786;48.690;9.562;2022-12-24T13:23:25;12.30;99.90
48019;DHT22;33786;48.690;9.562;2022-12-24T13:25:53;12.40;99.90
48019;DHT22;33786;48.690;9.562;2022-12-24T13:36:02;12.50;99.90
48019;DHT22;33786;48.690;9.562;2022-12-24T13:38:34;12.60;99.90
48019;DHT22;33786;48.690;9.562;2022-12-24T13:49:18;12.80;99.90
48019;DHT22;33786;48.690;9.562;2022-12-24T13:51:46;12.80;99.90
48019;DHT22;33786;48.690;9.562;2022-12-24T13:54:13;12.80;99.90
48019;DHT22;33786;48.690;9.562;2022-12-24T13:56:43;12.80;99.90
48019;DHT22;33786;48.690;9.562;2022-12-24T14:01:38;12.80;99.90
48019;DHT22;33786;48.690;9.562;2022-12-24T14:04:07;12.80;99.90
48019;DHT22;33786;48.690;9.562;2022-12-24T14:06:35;12.80;99.90
48019;DHT22;33786;48.690;9.562;2022-12-24T14:09:07;12.70;99.90
48019;DHT22;33786;48.690;9.562;2022-12-24T14:14:34;12.70;99.90
48019;DHT22;33786;48.690;9.562;2022-12-24T14:17:02;12.80;99.90
48019;DHT22;33786;48.690;9.562;2022-12-24T14:19:43;12.80;99.90
48019;DHT22;33786;48.690;9.562;2022-12-24T14:24:40;12.90;99.90
48019;DHT22;33786;48.690;9.562;2022-12-24T14:32:34;12.90;99.90
48019;DHT22;33786;48.690;9.562;2022-12-24T14:37:57;12.80;99.90
48019;DHT22;33786;48.690;9.562;2022-12-24T14:40:26;12.80;99.90
48019;DHT22;33786;48.690;9.562;2022-12-24T14:46:26;12.70;99.90
48019;DHT22;33786;48.690;9.562;2022-12-24T14:48:30;12.60;99.90
48019;DHT22;33786;48.690;9.562;2022-12-24T14:56:20;12.30;99.90
48019;DHT22;33786;48.690;9.562;2022-12-24T14:58:48;12.10;99.90
48019;DHT22;33786;48.690;9.562;2022-12-24T15:01:22;12.00;99.90
48019;DHT22;33786;48.690;9.562;2022-12-24T15:06:45;11.80;99.90
48019;DHT22;33786;48.690;9.562;2022-12-24T15:09:28;11.70;99.90
48019;DHT22;33786;48.690;9.562;2022-12-24T15:11:57;11.50;99.90
48019;DHT22;33786;48.690;9.562;2022-12-24T15:14:25;11.40;99.90
48019;DHT22;33786;48.690;9.562;2022-12-24T15:16:57;11.20;99.90
48019;DHT22;33786;48.690;9.562;2022-12-24T15:19:31;11.10;99.90
48019;DHT22;33786;48.690;9.562;2022-12-24T15:22:00;10.90;99.90
48019;DHT22;33786;48.690;9.562;2022-12-24T15:24:28;10.80;99.90
48019;DHT22;33786;48.690;9.562;2022-12-24T15:26:58;10.60;99.90
48019;DHT22;33786;48.690;9.562;2022-12-24T15:29:26;10.50;99.90
48019;DHT22;33786;48.690;9.562;2022-12-24T15:31:54;10.40;99.90
48019;DHT22;33786;48.690;9.562;2022-12-24T15:34:40;10.30;99.90
48019;DHT22;33786;48.690;9.562;2022-12-24T15:39:53;10.10;99.90
48019;DHT22;33786;48.690;9.562;2022-12-24T15:42:20;10.00;99.90
48019;DHT22;33786;48.690;9.562;2022-12-24T15:44:57;10.00;99.90
48019;DHT22;33786;48.690;9.562;2022-12-24T15:47:34;9.80;99.90
48019;DHT22;33786;48.690;9.562;2022-12-24T15:50:14;9.80;99.90
48019;DHT22;33786;48.690;9.562;2022-12-24T15:52:43;9.80;99.90
48019;DHT22;33786;48.690;9.562;2022-12-24T15:57:55;9.70;99.90
48019;DHT22;33786;48.690;9.562;2022-12-24T16:00:23;9.70;99.90
48019;DHT22;33786;48.690;9.562;2022-12-24T16:02:52;9.70;99.90
48019;DHT22;33786;48.690;9.562;2022-12-24T16:05:35;9.70;99.90
48019;DHT22;33786;48.690;9.562;2022-12-24T16:13:01;9.70;99.90
48019;DHT22;33786;48.690;9.562;2022-12-24T16:15:28;9.70;99.90
48019;DHT22;33786;48.690;9.562;2022-12-24T16:17:55;9.70;99.90
48019;DHT22;33786;48.690;9.562;2022-12-24T16:20:22;9.60;99.90
48019;DHT22;33786;48.690;9.562;2022-12-24T16:22:49;9.60;99.90
48019;DHT22;33786;48.690;9.562;2022-12-24T16:25:20;9.60;99.90
48019;DHT22;33786;48.690;9.562;2022-12-24T16:27:48;9.60;99.90
48019;DHT22;33786;48.690;9.562;2022-12-24T16:30:16;9.60;99.90
48019;DHT22;33786;48.690;9.562;2022-12-24T16:32:42;9.60;99.90
48019;DHT22;33786;48.690;9.562;2022-12-24T16:35:19;9.60;99.90
48019;DHT22;33786;48.690;9.562;2022-12-24T16:37:47;9.60;99.90
48019;DHT22;33786;48.690;9.562;2022-12-24T16:40:14;9.60;99.90
48019;DHT22;33786;48.690;9.562;2022-12-24T16:42:48;9.60;99.90
48019;DHT22;33786;48.690;9.562;2022-12-24T16:45:34;9.50;99.90
48019;DHT22;33786;48.690;9.562;2022-12-24T16:48:02;9.40;99.90
48019;DHT22;33786;48.690;9.562;2022-12-24T16:50:30;9.30;99.90
48019;DHT22;33786;48.690;9.562;2022-12-24T16:52:57;9.30;99.90
48019;DHT22;33786;48.690;9.562;2022-12-24T16:55:24;9.40;99.90
48019;DHT22;33786;48.690;9.562;2022-12-24T16:57:50;9.40;99.90
48019;DHT22;33786;48.690;9.562;2022-12-24T17:00:18;9.40;99.90
48019;DHT22;33786;48.690;9.562;2022-12-24T17:02:46;9.40;99.90
48019;DHT22;33786;48.690;9.562;2022-12-24T17:05:14;9.40;99.90
48019;DHT22;33786;48.690;9.562;2022-12-24T17:07:40;9.40;99.90
48019;DHT22;33786;48.690;9.562;2022-12-24T17:10:10;9.40;99.90
48019;DHT22;33786;48.690;9.562;2022-12-24T17:12:37;9.40;99.90
48019;DHT22;33786;48.690;9.562;2022-12-24T17:15:04;9.40;99.90
48019;DHT22;33786;48.690;9.562;2022-12-24T17:17:30;9.40;99.90
48019;DHT22;33786;48.690;9.562;2022-12-24T17:19:57;9.50;99.90
48019;DHT22;33786;48.690;9.562;2022-12-24T17:22:25;9.40;99.90
48019;DHT22;33786;48.690;9.562;2022-12-24T17:24:53;9.50;99.90
48019;DHT22;33786;48.690;9.562;2022-12-24T17:27:20;9.50;99.90
48019;DHT22;33786;48.690;9.562;2022-12-24T17:29:48;9.50;99.90
48019;DHT22;33786;48.690;9.562;2022-12-24T17:32:14;9.50;99.90
48019;DHT22;33786;48.690;9.562;2022-12-24T17:34:41;9.50;99.90
48019;DHT22;33786;48.690;9.562;2022-12-24T17:37:08;9.50;99.90
48019;DHT22;33786;48.690;9.562;2022-12-24T17:39:35;9.60;99.90
48019;DHT22;33786;48.690;9.562;2022-12-24T17:42:02;9.60;99.90
48019;DHT22;33786;48.690;9.562;2022-12-24T17:44:28;9.50;99.90
48019;DHT22;33786;48.690;9.562;2022-12-24T17:46:55;9.50;99.90
48019;DHT22;33786;48.690;9.562;2022-12-24T17:49:22;9.60;99.90
48019;DHT22;33786;48.690;9.562;2022-12-24T17:51:49;9.50;99.90
48019;DHT22;33786;48.690;9.562;2022-12-24T17:54:15;9.60;99.90
48019;DHT22;33786;48.690;9.562;2022-12-24T17:56:42;9.60;99.90
48019;DHT22;33786;48.690;9.562;2022-12-24T17:59:09;9.60;99.90
48019;DHT22;33786;48.690;9.562;2022-12-24T18:01:36;9.60;99.90
48019;DHT22;33786;48.690;9.562;2022-12-24T18:04:03;9.50;99.90
48019;DHT22;33786;48.690;9.562;2022-12-24T18:06:30;9.60;99.90
48019;DHT22;33786;48.690;9.562;2022-12-24T18:08:57;9.50;99.90
48019;DHT22;33786;48.690;9.562;2022-12-24T18:11:28;9.50;99.90
48019;DHT22;33786;48.690;9.562;2022-12-24T18:13:56;9.50;99.90
48019;DHT22;33786;48.690;9.562;2022-12-24T18:16:25;9.50;99.90
48019;DHT22;33786;48.690;9.562;2022-12-24T18:18:52;9.50;99.90